Time;durP1;ratioP1;P1;durP2;ratioP2;P2;SDS_P1;SDS_P2;PMS_P1;PMS_P2;Temp;Humidity;BMP_temperature;BMP_pressure;BME280_temperature;BME280_humidity;BME280_pressure;Samples;Min_cycle;Max_cycle;Signal;HPM_P1;HPM_P2
2023/09/21 00:00:28;;;;;;;1999.90;999.90;;;13.10;99.90;;;;;;5074536;28;20053;-77
2023/09/21 00:02:55;;;;;;;1999.90;999.90;;;13.10;99.90;;;;;;5075606;28;20099;-77
2023/09/21 00:05:22;;;;;;;1999.90;999.90;;;13.10;99.90;;;;;;5075802;28;20104;-77
2023/09/21 00:07:49;;;;;;;1999.90;999.90;;;13.10;99.90;;;;;;5075706;28;20082;-77
2023/09/21 00:10:15;;;;;;;1999.90;999.90;;;13.00;99.90;;;;;;5075829;28;20474;-77
2023/09/21 00:12:41;;;;;;;1999.90;999.90;;;13.10;99.90;;;;;;5075549;28;20037;-77
2023/09/21 00:15:08;;;;;;;1999.90;999.90;;;12.90;99.90;;;;;;5075622;28;20033;-77
2023/09/21 00:17:35;;;;;;;1999.90;999.90;;;13.00;99.90;;;;;;5075491;28;20103;-77
2023/09/21 00:20:10;;;;;;;1999.90;999.90;;;13.00;99.90;;;;;;5074049;28;20064;-77
2023/09/21 00:22:36;;;;;;;1999.90;999.90;;;12.90;99.90;;;;;;5075540;28;20067;-77
2023/09/21 00:25:07;;;;;;;1999.90;999.90;;;12.90;99.90;;;;;;5074056;28;20040;-77
2023/09/21 00:27:33;;;;;;;1999.90;999.90;;;12.90;99.90;;;;;;5075315;28;20108;-77
2023/09/21 00:30:01;;;;;;;1999.90;999.90;;;12.90;99.90;;;;;;5075578;28;20455;-77
2023/09/21 00:32:27;;;;;;;1999.90;999.90;;;13.00;99.90;;;;;;5075175;28;20065;-77
2023/09/21 00:34:52;;;;;;;1999.90;999.90;;;12.90;99.90;;;;;;5075547;28;20108;-77
2023/09/21 00:37:18;;;;;;;1999.90;999.90;;;12.90;99.90;;;;;;5075332;28;20024;-77
2023/09/21 00:39:44;;;;;;;1999.90;999.90;;;12.90;99.90;;;;;;5073895;28;20033;-77
2023/09/21 00:42:09;;;;;;;1999.90;999.90;;;12.90;99.90;;;;;;5075452;28;20064;-77
2023/09/21 00:44:35;;;;;;;1999.90;999.90;;;13.00;99.90;;;;;;5075172;28;20093;-77
2023/09/21 00:47:01;;;;;;;1999.90;999.90;;;13.00;99.90;;;;;;5074518;28;20041;-77
2023/09/21 00:49:29;;;;;;;1999.90;999.90;;;13.00;99.90;;;;;;5073712;28;20052;-77
2023/09/21 00:51:55;;;;;;;1999.90;999.90;;;13.00;99.90;;;;;;5075218;28;20087;-77
2023/09/21 00:54:22;;;;;;;1999.90;999.90;;;13.00;99.90;;;;;;5073828;28;20033;-77
2023/09/21 00:56:52;;;;;;;1999.90;999.90;;;13.00;99.90;;;;;;5073391;28;20617;-77
2023/09/21 00:59:19;;;;;;;1999.90;999.90;;;13.00;99.90;;;;;;5075120;28;20033;-77
2023/09/21 01:01:45;;;;;;;1999.90;999.90;;;13.10;99.90;;;;;;5073754;28;20160;-77
2023/09/21 01:04:12;;;;;;;1999.90;999.90;;;13.10;99.90;;;;;;5074626;28;20029;-77
2023/09/21 01:06:39;;;;;;;1999.90;999.90;;;13.10;99.90;;;;;;5074779;28;20033;-77
2023/09/21 01:09:06;;;;;;;1999.90;999.90;;;13.10;99.90;;;;;;5074894;28;20039;-77
2023/09/21 01:11:37;;;;;;;1999.90;999.90;;;13.10;99.90;;;;;;5074728;28;20029;-77
2023/09/21 01:14:03;;;;;;;1999.90;999.90;;;13.20;99.90;;;;;;5072975;28;20052;-77
2023/09/21 01:16:30;;;;;;;1999.90;999.90;;;13.10;99.90;;;;;;5074546;28;20033;-77
2023/09/21 01:18:55;;;;;;;1999.90;999.90;;;13.10;99.90;;;;;;5074804;28;20495;-77
2023/09/21 01:21:31;;;;;;;1999.90;999.90;;;13.10;99.90;;;;;;5073213;28;20040;-77
2023/09/21 01:23:57;;;;;;;1999.90;999.90;;;13.10;99.90;;;;;;5074666;28;20052;-77
2023/09/21 01:26:23;;;;;;;1999.90;999.90;;;13.10;99.90;;;;;;5072946;28;20119;-77
2023/09/21 01:28:49;;;;;;;1999.90;999.90;;;13.10;99.90;;;;;;5074686;28;20113;-77
2023/09/21 01:31:16;;;;;;;1999.90;999.90;;;13.10;99.90;;;;;;5074597;28;20784;-77
2023/09/21 01:33:42;;;;;;;1999.90;999.90;;;13.10;99.90;;;;;;5074396;28;20479;-77
2023/09/21 01:36:09;;;;;;;1999.90;999.90;;;13.10;99.90;;;;;;5074409;28;20493;-77
2023/09/21 01:38:35;;;;;;;1999.90;999.90;;;13.00;99.90;;;;;;5073048;28;20037;-77
2023/09/21 01:41:01;;;;;;;1999.90;999.90;;;13.10;99.90;;;;;;5074417;28;20454;-77
2023/09/21 01:43:27;;;;;;;1999.90;999.90;;;13.10;99.90;;;;;;5073874;28;20091;-77
2023/09/21 01:45:54;;;;;;;1999.90;999.90;;;13.00;99.90;;;;;;5073326;28;20029;-77
2023/09/21 01:48:20;;;;;;;1999.90;999.90;;;13.00;99.90;;;;;;5074239;28;20491;-77
2023/09/21 01:50:50;;;;;;;1999.90;999.90;;;13.00;99.90;;;;;;5072920;28;20044;-77
2023/09/21 01:53:19;;;;;;;1999.90;999.90;;;13.00;99.90;;;;;;5074344;28;20487;-77
2023/09/21 01:55:47;;;;;;;1999.90;999.90;;;13.10;99.90;;;;;;5073941;28;20434;-77
2023/09/21 01:58:14;;;;;;;1999.90;999.90;;;13.10;99.90;;;;;;5074263;28;20112;-77
2023/09/21 02:00:46;;;;;;;1999.90;999.90;;;13.10;99.90;;;;;;5072844;28;20029;-77
2023/09/21 02:03:12;;;;;;;1999.90;999.90;;;13.10;99.90;;;;;;5072605;28;20025;-77
2023/09/21 02:05:39;;;;;;;1999.90;999.90;;;13.20;99.90;;;;;;5074229;28;20032;-78
2023/09/21 02:08:07;;;;;;;1999.90;999.90;;;13.20;99.90;;;;;;5074154;28;20048;-77
2023/09/21 02:10:33;;;;;;;1999.90;999.90;;;13.20;99.90;;;;;;5074122;28;20037;-77
2023/09/21 02:13:00;;;;;;;1999.90;999.90;;;13.20;99.90;;;;;;5072611;28;20041;-77
2023/09/21 02:15:27;;;;;;;1999.90;999.90;;;13.30;99.90;;;;;;5076363;28;20033;-77
2023/09/21 02:17:55;;;;;;;1999.90;999.90;;;13.20;99.90;;;;;;5077189;28;20041;-77
2023/09/21 02:20:22;;;;;;;1999.90;999.90;;;13.30;99.90;;;;;;5077536;28;20029;-77
2023/09/21 02:22:49;;;;;;;1999.90;999.90;;;13.30;99.90;;;;;;5077082;28;20029;-77
2023/09/21 02:25:15;;;;;;;1999.90;999.90;;;13.30;99.90;;;;;;5077423;28;20471;-77
2023/09/21 02:27:43;;;;;;;1999.90;999.90;;;13.40;99.90;;;;;;5077287;28;20059;-77
2023/09/21 02:30:12;;;;;;;1999.90;999.90;;;13.40;99.90;;;;;;5077381;28;20784;-77
2023/09/21 02:32:45;;;;;;;1999.90;999.90;;;13.40;99.90;;;;;;5077000;28;20481;-77
2023/09/21 02:35:15;;;;;;;1999.90;999.90;;;13.40;99.90;;;;;;5077568;28;20099;-77
2023/09/21 02:37:45;;;;;;;1999.90;999.90;;;13.40;99.90;;;;;;5076984;28;20037;-77
2023/09/21 02:40:14;;;;;;;1999.90;999.90;;;13.50;99.90;;;;;;5077288;28;20577;-77
2023/09/21 02:42:44;;;;;;;1999.90;999.90;;;13.50;99.90;;;;;;5076548;28;20538;-77
2023/09/21 02:45:11;;;;;;;1999.90;999.90;;;13.60;99.90;;;;;;5075635;28;20029;-77
2023/09/21 02:47:37;;;;;;;1999.90;999.90;;;13.60;99.90;;;;;;5076661;28;20047;-77
2023/09/21 02:50:14;;;;;;;1999.90;999.90;;;13.60;99.90;;;;;;5077240;28;20461;-77
2023/09/21 02:52:47;;;;;;;1999.90;999.90;;;13.60;99.90;;;;;;5077022;28;20067;-77
2023/09/21 02:55:17;;;;;;;1999.90;999.90;;;13.60;99.90;;;;;;5075471;28;20035;-77
2023/09/21 02:57:47;;;;;;;1999.90;999.90;;;13.60;99.90;;;;;;5076922;28;20075;-77
2023/09/21 03:00:20;;;;;;;1999.90;999.90;;;13.70;99.90;;;;;;5075486;28;20032;-77
2023/09/21 03:02:45;;;;;;;1999.90;999.90;;;13.60;99.90;;;;;;5076928;28;20395;-77
2023/09/21 03:05:13;;;;;;;1999.90;999.90;;;13.70;99.90;;;;;;5077068;28;20040;-77
2023/09/21 03:07:43;;;;;;;1999.90;999.90;;;13.70;99.90;;;;;;5076589;28;20108;-77
2023/09/21 03:10:10;;;;;;;1999.90;999.90;;;13.80;99.90;;;;;;5076710;28;20483;-77
2023/09/21 03:12:39;;;;;;;1999.90;999.90;;;13.80;99.90;;;;;;5076613;28;21003;-77
2023/09/21 03:15:15;;;;;;;1999.90;999.90;;;13.80;99.90;;;;;;5076395;28;20060;-77
2023/09/21 03:17:44;;;;;;;1999.90;999.90;;;13.90;99.90;;;;;;5076591;28;20037;-77
2023/09/21 03:20:28;;;;;;;1999.90;999.90;;;14.00;99.90;;;;;;5075200;28;20107;-77
2023/09/21 03:22:54;;;;;;;1999.90;999.90;;;14.10;99.90;;;;;;5074869;28;20028;-77
2023/09/21 03:25:27;;;;;;;1999.90;999.90;;;14.20;99.90;;;;;;5076669;28;20115;-77
2023/09/21 03:27:54;;;;;;;1999.90;999.90;;;14.20;99.90;;;;;;5076378;28;20037;-78
2023/09/21 03:30:20;;;;;;;1999.90;999.90;;;14.30;99.90;;;;;;5076522;28;20029;-77
2023/09/21 03:32:46;;;;;;;1999.90;999.90;;;14.30;99.90;;;;;;5076090;28;20057;-77
2023/09/21 03:35:11;;;;;;;1999.90;999.90;;;14.30;99.90;;;;;;5074660;28;20113;-78
2023/09/21 03:37:41;;;;;;;1999.90;999.90;;;14.30;99.90;;;;;;5076172;28;20514;-77
2023/09/21 03:40:09;;;;;;;1999.90;999.90;;;14.30;99.90;;;;;;5076204;28;20025;-77
2023/09/21 03:42:35;;;;;;;1999.90;999.90;;;14.30;99.90;;;;;;5074154;28;20033;-77
2023/09/21 03:45:01;;;;;;;1999.90;999.90;;;14.30;99.90;;;;;;5076442;28;20025;-77
2023/09/21 03:47:27;;;;;;;1999.90;999.90;;;14.50;99.90;;;;;;5075495;28;20033;-77
2023/09/21 03:49:53;;;;;;;1999.90;999.90;;;14.40;99.90;;;;;;5076320;28;20025;-77
2023/09/21 03:52:19;;;;;;;1999.90;999.90;;;14.50;99.90;;;;;;5076070;28;20487;-77
2023/09/21 03:54:46;;;;;;;1999.90;999.90;;;14.50;99.90;;;;;;5074649;28;20033;-78
2023/09/21 03:57:14;;;;;;;1999.90;999.90;;;14.40;99.90;;;;;;5074312;28;20091;-77
2023/09/21 03:59:40;;;;;;;1999.90;999.90;;;14.40;99.90;;;;;;5076000;28;20490;-77
2023/09/21 04:02:09;;;;;;;1999.90;999.90;;;14.60;99.90;;;;;;5076083;28;20037;-77
2023/09/21 04:04:36;;;;;;;1999.90;999.90;;;14.50;99.90;;;;;;5075614;28;20032;-77
2023/09/21 04:07:02;;;;;;;1999.90;999.90;;;14.60;99.90;;;;;;5075621;28;20116;-78
2023/09/21 04:09:28;;;;;;;1999.90;999.90;;;14.60;99.90;;;;;;5074264;28;20033;-78
2023/09/21 04:11:57;;;;;;;1999.90;999.90;;;14.40;99.90;;;;;;5075872;28;20044;-77
2023/09/21 04:14:24;;;;;;;1999.90;999.90;;;14.50;99.90;;;;;;5074070;28;20036;-77
2023/09/21 04:16:50;;;;;;;1999.90;999.90;;;14.40;99.90;;;;;;5075639;28;20522;-77
2023/09/21 04:19:15;;;;;;;1999.90;999.90;;;14.50;99.90;;;;;;5074047;28;20060;-77
2023/09/21 04:21:41;;;;;;;1999.90;999.90;;;14.40;99.90;;;;;;5075740;28;20376;-77
2023/09/21 04:24:08;;;;;;;1999.90;999.90;;;14.40;99.90;;;;;;5074014;28;20044;-77
2023/09/21 04:26:33;;;;;;;1999.90;999.90;;;14.40;99.90;;;;;;5073839;28;20094;-77
2023/09/21 04:28:59;;;;;;;1999.90;999.90;;;14.40;99.90;;;;;;5075661;28;20024;-77
2023/09/21 04:31:24;;;;;;;1999.90;999.90;;;14.40;99.90;;;;;;5074054;28;20033;-77
2023/09/21 04:33:50;;;;;;;1999.90;999.90;;;14.30;99.90;;;;;;5075287;28;20033;-76
2023/09/21 04:36:15;;;;;;;1999.90;999.90;;;14.40;99.90;;;;;;5075283;28;20069;-77
2023/09/21 04:38:42;;;;;;;1999.90;999.90;;;14.40;99.90;;;;;;5073316;28;20130;-77
2023/09/21 04:41:13;;;;;;;1999.90;999.90;;;14.40;99.90;;;;;;5075438;28;20621;-77
2023/09/21 04:43:39;;;;;;;1999.90;999.90;;;14.40;99.90;;;;;;5074934;28;20107;-77
2023/09/21 04:46:05;;;;;;;1999.90;999.90;;;14.50;99.90;;;;;;5073485;28;20037;-77
2023/09/21 04:48:33;;;;;;;1999.90;999.90;;;14.50;99.90;;;;;;5073631;28;20038;-77
2023/09/21 04:50:59;;;;;;;1999.90;999.90;;;14.50;99.90;;;;;;5075164;28;20029;-77
2023/09/21 04:53:25;;;;;;;1999.90;999.90;;;14.50;99.90;;;;;;5073666;28;20037;-81
2023/09/21 04:55:50;;;;;;;1999.90;999.90;;;14.50;99.90;;;;;;5075045;28;20907;-77
2023/09/21 04:58:17;;;;;;;1999.90;999.90;;;14.70;99.90;;;;;;5073542;28;20064;-76
2023/09/21 05:00:42;;;;;;;1999.90;999.90;;;14.60;99.90;;;;;;5075036;28;20110;-76
2023/09/21 05:03:09;;;;;;;1999.90;999.90;;;14.60;99.90;;;;;;5074950;28;20115;-76
2023/09/21 05:05:35;;;;;;;1999.90;999.90;;;14.70;99.90;;;;;;5073397;28;20033;-76
2023/09/21 05:08:03;;;;;;;1999.90;999.90;;;14.80;99.90;;;;;;5074834;28;20029;-76
2023/09/21 05:10:30;;;;;;;1999.90;999.90;;;14.80;99.90;;;;;;5074930;28;20029;-77
2023/09/21 05:12:57;;;;;;;1999.90;999.90;;;14.80;99.90;;;;;;5074968;28;20540;-77
2023/09/21 05:15:23;;;;;;;1999.90;999.90;;;14.90;99.90;;;;;;5072842;28;20494;-78
2023/09/21 05:17:49;;;;;;;1999.90;999.90;;;14.90;99.90;;;;;;5073053;28;20534;-78
2023/09/21 05:20:15;;;;;;;1999.90;999.90;;;15.00;99.90;;;;;;5067437;28;20127;-78
2023/09/21 05:22:41;;;;;;;1999.90;999.90;;;15.10;99.90;;;;;;5074384;28;20091;-78
2023/09/21 05:25:07;;;;;;;1999.90;999.90;;;14.90;99.90;;;;;;5073185;28;20446;-78
2023/09/21 05:27:33;;;;;;;1999.90;999.90;;;14.90;99.90;;;;;;5072916;28;20064;-77
2023/09/21 05:30:01;;;;;;;1999.90;999.90;;;14.90;99.90;;;;;;5074339;28;20523;-78
2023/09/21 05:32:27;;;;;;;1999.90;999.90;;;15.00;99.90;;;;;;5074329;28;20094;-78
2023/09/21 05:34:53;;;;;;;1999.90;999.90;;;15.00;99.90;;;;;;5074215;28;20068;-80
2023/09/21 05:37:21;;;;;;;1999.90;999.90;;;15.00;99.90;;;;;;5073193;28;20479;-78
2023/09/21 05:39:48;;;;;;;1999.90;999.90;;;15.10;99.90;;;;;;5073141;28;20055;-78
2023/09/21 05:42:15;;;;;;;1999.90;999.90;;;15.10;99.90;;;;;;5074004;28;20033;-80
2023/09/21 05:44:42;;;;;;;1999.90;999.90;;;15.10;99.90;;;;;;5074842;28;20041;-80
2023/09/21 05:47:08;;;;;;;1999.90;999.90;;;15.10;99.90;;;;;;5075936;28;20117;-79
2023/09/21 05:49:36;;;;;;;1999.90;999.90;;;15.10;99.90;;;;;;5077301;28;20927;-79
2023/09/21 05:52:08;;;;;;;1999.90;999.90;;;15.10;99.90;;;;;;5080056;28;20048;-80
2023/09/21 05:54:35;;;;;;;1999.90;999.90;;;15.20;99.90;;;;;;5078184;28;20116;-80
2023/09/21 05:57:03;;;;;;;1999.90;999.90;;;15.20;99.90;;;;;;5078020;28;20037;-80
2023/09/21 05:59:31;;;;;;;1999.90;999.90;;;15.20;99.90;;;;;;5078638;28;20075;-81
2023/09/21 06:01:57;;;;;;;1999.90;999.90;;;15.30;99.90;;;;;;5079094;28;20037;-79
2023/09/21 06:04:24;;;;;;;1999.90;999.90;;;15.30;99.90;;;;;;5078240;28;20036;-82
2023/09/21 06:06:56;;;;;;;1999.90;999.90;;;15.30;99.90;;;;;;5078007;28;20041;-81
2023/09/21 06:09:22;;;;;;;1999.90;999.90;;;15.40;99.90;;;;;;5078356;28;20083;-80
2023/09/21 06:11:48;;;;;;;1999.90;999.90;;;15.50;99.90;;;;;;5078609;28;20407;-81
2023/09/21 06:14:15;;;;;;;1999.90;999.90;;;15.50;99.90;;;;;;5077202;28;20056;-81
2023/09/21 06:16:44;;;;;;;1999.90;999.90;;;15.60;99.90;;;;;;5076959;28;20025;-80
2023/09/21 06:19:11;;;;;;;1999.90;999.90;;;15.50;99.90;;;;;;5080762;28;20578;-79
2023/09/21 06:21:39;;;;;;;1999.90;999.90;;;15.50;99.90;;;;;;5079769;28;20111;-80
2023/09/21 06:24:05;;;;;;;1999.90;999.90;;;15.60;99.90;;;;;;5077593;28;20402;-80
2023/09/21 06:26:31;;;;;;;1999.90;999.90;;;15.60;99.90;;;;;;5079303;28;20515;-80
2023/09/21 06:28:58;;;;;;;1999.90;999.90;;;15.70;99.90;;;;;;5078467;28;20033;-80
2023/09/21 06:31:24;;;;;;;1999.90;999.90;;;15.60;99.90;;;;;;5078369;28;20037;-80
2023/09/21 06:33:49;;;;;;;1999.90;999.90;;;15.60;99.90;;;;;;5079559;28;20029;-80
2023/09/21 06:36:18;;;;;;;1999.90;999.90;;;15.60;99.90;;;;;;5079466;28;20076;-80
2023/09/21 06:38:45;;;;;;;1999.90;999.90;;;15.60;99.90;;;;;;5080288;28;20052;-80
2023/09/21 06:41:11;;;;;;;1999.90;999.90;;;15.60;99.90;;;;;;5083724;28;20029;-80
2023/09/21 06:43:42;;;;;;;1999.90;999.90;;;15.60;99.90;;;;;;5080949;28;20037;-81
2023/09/21 06:46:08;;;;;;;1999.90;999.90;;;15.80;99.90;;;;;;5076535;28;20083;-80
2023/09/21 06:48:33;;;;;;;1999.90;999.90;;;15.70;99.90;;;;;;5078101;28;20527;-80
2023/09/21 06:50:59;;;;;;;1999.90;999.90;;;15.90;99.90;;;;;;5078141;28;20041;-80
2023/09/21 06:53:25;;;;;;;1999.90;999.90;;;15.90;99.90;;;;;;5076006;28;20061;-80
2023/09/21 06:55:51;;;;;;;1999.90;999.90;;;15.90;99.90;;;;;;5075938;28;20102;-80
2023/09/21 06:58:16;;;;;;;1999.90;999.90;;;16.00;99.90;;;;;;5075759;28;20540;-80
2023/09/21 07:00:42;;;;;;;1999.90;999.90;;;16.10;99.90;;;;;;5075322;28;20029;-81
2023/09/21 07:03:09;;;;;;;1999.90;999.90;;;16.10;99.90;;;;;;5075540;28;20037;-81
2023/09/21 07:05:35;;;;;;;1999.90;999.90;;;16.20;99.90;;;;;;5075856;28;20029;-81
2023/09/21 07:08:01;;;;;;;1999.90;999.90;;;16.20;99.90;;;;;;5075669;28;20475;-81
2023/09/21 07:10:26;;;;;;;1999.90;999.90;;;16.30;99.90;;;;;;5077018;28;20550;-81
2023/09/21 07:12:53;;;;;;;1999.90;999.90;;;16.30;99.90;;;;;;5076746;28;20372;-81
2023/09/21 07:15:19;;;;;;;1999.90;999.90;;;16.40;99.90;;;;;;5075494;28;20167;-81
2023/09/21 07:17:46;;;;;;;1999.90;999.90;;;16.50;99.90;;;;;;5076806;28;20470;-81
2023/09/21 07:20:12;;;;;;;1999.90;999.90;;;16.60;99.90;;;;;;5076813;28;20058;-81
2023/09/21 07:22:38;;;;;;;1999.90;999.90;;;16.70;99.90;;;;;;5077415;28;20514;-81
2023/09/21 07:25:03;;;;;;;1999.90;999.90;;;16.80;99.90;;;;;;5076663;28;20036;-81
2023/09/21 07:27:29;;;;;;;1999.90;999.90;;;16.90;99.90;;;;;;5076918;28;20509;-81
2023/09/21 07:29:56;;;;;;;1999.90;999.90;;;16.90;99.90;;;;;;5077672;28;20037;-81
2023/09/21 07:32:25;;;;;;;1999.90;999.90;;;17.00;99.90;;;;;;5075450;28;20044;-81
2023/09/21 07:34:51;;;;;;;1999.90;999.90;;;17.00;99.90;;;;;;5075267;28;20033;-81
2023/09/21 07:37:16;;;;;;;1999.90;999.90;;;17.20;99.90;;;;;;5076382;28;20036;-81
2023/09/21 07:39:42;;;;;;;1999.90;999.90;;;17.30;99.90;;;;;;5076799;28;20040;-81
2023/09/21 07:42:09;;;;;;;1999.90;999.90;;;17.60;99.90;;;;;;5075215;28;20033;-80
2023/09/21 07:44:35;;;;;;;1999.90;999.90;;;17.60;99.90;;;;;;5077204;28;20031;-82
2023/09/21 07:47:00;;;;;;;1999.90;999.90;;;17.80;99.90;;;;;;5075636;28;20035;-82
2023/09/21 07:49:26;;;;;;;1999.90;999.90;;;17.90;99.90;;;;;;5075787;28;20033;-82
2023/09/21 07:51:55;;;;;;;1999.90;999.90;;;18.10;99.90;;;;;;5075503;28;20128;-83
2023/09/21 07:54:21;;;;;;;1999.90;999.90;;;18.20;99.90;;;;;;5075109;28;20036;-82
2023/09/21 07:56:47;;;;;;;1999.90;999.90;;;18.40;99.90;;;;;;5075375;28;20033;-81
2023/09/21 07:59:12;;;;;;;1999.90;999.90;;;18.70;99.90;;;;;;5075784;28;20056;-81
2023/09/21 08:01:38;;;;;;;1999.90;999.90;;;18.90;99.90;;;;;;5075363;28;20106;-82
2023/09/21 08:04:05;;;;;;;1999.90;999.90;;;19.00;99.90;;;;;;5076810;28;20108;-82
2023/09/21 08:06:30;;;;;;;1999.90;999.90;;;19.20;99.90;;;;;;5076728;28;20088;-81
2023/09/21 08:08:58;;;;;;;1999.90;999.90;;;19.40;99.90;;;;;;5077863;28;20498;-82
2023/09/21 08:11:23;;;;;;;1999.90;999.90;;;19.50;99.90;;;;;;5076304;28;20084;-82
2023/09/21 08:13:49;;;;;;;1999.90;999.90;;;19.40;99.90;;;;;;5076029;28;20064;-82
2023/09/21 08:16:15;;;;;;;1999.90;999.90;;;19.60;99.90;;;;;;5076116;28;20052;-83
2023/09/21 08:18:41;;;;;;;1999.90;999.90;;;19.90;99.90;;;;;;5077984;28;20044;-82
2023/09/21 08:21:09;;;;;;;1999.90;999.90;;;20.20;99.90;;;;;;5075694;28;20083;-82
2023/09/21 08:23:35;;;;;;;1999.90;999.90;;;20.50;99.90;;;;;;5076852;28;20029;-82
2023/09/21 08:26:02;;;;;;;1999.90;999.90;;;20.90;99.90;;;;;;5075176;28;20033;-82
2023/09/21 08:28:29;;;;;;;1999.90;999.90;;;21.10;99.90;;;;;;5075502;28;20036;-82
2023/09/21 08:30:55;;;;;;;1999.90;999.90;;;21.10;99.90;;;;;;5075341;28;20127;-82
2023/09/21 08:33:22;;;;;;;1999.90;999.90;;;21.60;99.90;;;;;;5075692;28;20063;-82
2023/09/21 08:35:48;;;;;;;1999.90;999.90;;;21.50;99.90;;;;;;5075338;28;20036;-82
2023/09/21 08:38:13;;;;;;;1999.90;999.90;;;21.80;99.90;;;;;;5075631;28;20036;-82
2023/09/21 08:40:43;;;;;;;1999.90;999.90;;;22.10;99.90;;;;;;5075563;28;20082;-82
2023/09/21 08:43:19;;;;;;;1999.90;999.90;;;22.20;99.90;;;;;;5076917;28;20044;-82
2023/09/21 08:45:46;;;;;;;1999.90;999.90;;;22.70;99.90;;;;;;5078193;28;20078;-82
2023/09/21 08:48:15;;;;;;;1999.90;999.90;;;23.20;99.90;;;;;;5080163;28;20036;-81
2023/09/21 08:50:42;;;;;;;1999.90;999.90;;;23.20;99.90;;;;;;5078675;28;20060;-82
2023/09/21 08:53:13;;;;;;;1999.90;999.90;;;23.20;99.90;;;;;;5077422;28;20040;-82
2023/09/21 08:55:41;;;;;;;1999.90;999.90;;;23.20;99.90;;;;;;5078528;28;20036;-82
2023/09/21 08:58:09;;;;;;;1999.90;999.90;;;23.40;99.90;;;;;;5076809;28;20037;-82
2023/09/21 09:00:35;;;;;;;1999.90;999.90;;;23.40;99.90;;;;;;5078696;28;20090;-82
2023/09/21 09:03:02;;;;;;;1999.90;999.90;;;23.40;99.90;;;;;;5077914;28;20054;-82
2023/09/21 09:05:27;;;;;;;1999.90;999.90;;;23.50;99.90;;;;;;5076714;28;20025;-83
2023/09/21 09:07:53;;;;;;;1999.90;999.90;;;23.50;99.90;;;;;;5078706;28;20033;-82
2023/09/21 09:10:19;;;;;;;1999.90;999.90;;;23.60;99.90;;;;;;5076980;28;20487;-82
2023/09/21 09:12:46;;;;;;;1999.90;999.90;;;23.70;99.90;;;;;;5078545;28;20513;-82
2023/09/21 09:15:14;;;;;;;1999.90;999.90;;;24.00;99.90;;;;;;5078529;28;20029;-82
2023/09/21 09:17:40;;;;;;;1999.90;999.90;;;24.30;99.90;;;;;;5077192;28;20033;-82
2023/09/21 09:20:06;;;;;;;1999.90;999.90;;;24.50;99.90;;;;;;5077339;28;20041;-83
2023/09/21 09:22:34;;;;;;;1999.90;999.90;;;24.70;99.90;;;;;;5076603;28;20037;-80
2023/09/21 09:25:05;;;;;;;1999.90;999.90;;;24.50;99.90;;;;;;5074182;28;20039;-78
2023/09/21 09:27:34;;;;;;;1999.90;999.90;;;24.10;99.90;;;;;;5073969;28;20112;-78
2023/09/21 09:30:00;;;;;;;1999.90;999.90;;;23.90;99.90;;;;;;5074031;28;20064;-79
2023/09/21 09:32:35;;;;;;;1999.90;999.90;;;23.70;99.90;;;;;;5073888;28;20391;-78
2023/09/21 09:35:03;;;;;;;1999.90;999.90;;;23.50;99.90;;;;;;5073707;28;20037;-78
2023/09/21 09:37:28;;;;;;;1999.90;999.90;;;23.60;99.90;;;;;;5073915;28;20107;-78
2023/09/21 09:39:56;;;;;;;1999.90;999.90;;;23.60;99.90;;;;;;5076726;28;20033;-78
2023/09/21 09:42:22;;;;;;;1999.90;999.90;;;23.80;99.90;;;;;;5074657;28;20037;-79
2023/09/21 09:44:50;;;;;;;1999.90;999.90;;;23.80;99.90;;;;;;5074846;28;20037;-78
2023/09/21 09:47:16;;;;;;;1999.90;999.90;;;24.10;99.90;;;;;;5074735;28;20029;-79
2023/09/21 09:49:49;;;;;;;1999.90;999.90;;;24.50;99.90;;;;;;5074666;28;20109;-78
2023/09/21 09:52:18;;;;;;;1999.90;999.90;;;24.80;99.90;;;;;;5074580;28;20869;-78
2023/09/21 09:54:47;;;;;;;1999.90;999.90;;;24.80;99.90;;;;;;5074871;28;20581;-80
2023/09/21 09:57:13;;;;;;;1999.90;999.90;;;24.80;99.90;;;;;;5075815;28;20033;-79
2023/09/21 09:59:41;;;;;;;1999.90;999.90;;;24.90;99.90;;;;;;5075908;28;20119;-78
2023/09/21 10:02:11;;;;;;;1999.90;999.90;;;24.90;99.90;;;;;;5074399;28;20414;-79
2023/09/21 10:04:39;;;;;;;1999.90;999.90;;;25.20;99.90;;;;;;5073947;28;20115;-79
2023/09/21 10:07:06;;;;;;;1999.90;999.90;;;25.40;99.90;;;;;;5073529;28;20033;-79
2023/09/21 10:09:32;;;;;;;1999.90;999.90;;;25.80;99.90;;;;;;5075069;28;20033;-82
2023/09/21 10:12:00;;;;;;;1999.90;999.90;;;26.10;99.90;;;;;;5075531;28;20037;-81
2023/09/21 10:14:25;;;;;;;1999.90;999.90;;;26.00;99.90;;;;;;5076364;28;20037;-82
2023/09/21 10:16:57;;;;;;;1999.90;999.90;;;26.00;99.90;;;;;;5075533;28;20039;-82
2023/09/21 10:19:36;;;;;;;1999.90;999.90;;;25.80;99.90;;;;;;5075106;28;22231;-82
2023/09/21 10:22:25;;;;;;;1999.90;999.90;;;25.90;99.90;;;;;;5075622;28;20028;-82
2023/09/21 10:24:54;;;;;;;1999.90;999.90;;;26.30;99.90;;;;;;5069316;28;20760;-83
2023/09/21 10:27:24;;;;;;;1999.90;999.90;;;26.00;99.90;;;;;;5076774;28;20045;-82
2023/09/21 10:30:00;;;;;;;1999.90;999.90;;;25.90;99.90;;;;;;5075328;28;20120;-81
2023/09/21 10:32:41;;;;;;;1999.90;999.90;;;25.70;99.90;;;;;;5074257;28;20037;-80
2023/09/21 10:35:08;;;;;;;1999.90;999.90;;;25.70;99.90;;;;;;5076814;28;20036;-81
2023/09/21 10:37:35;;;;;;;1999.90;999.90;;;26.00;99.90;;;;;;5079563;28;20029;-80
2023/09/21 10:40:08;;;;;;;1999.90;999.90;;;26.40;99.90;;;;;;5078364;28;20044;-80
2023/09/21 10:42:36;;;;;;;1999.90;999.90;;;26.70;99.90;;;;;;5074806;28;20037;-80
2023/09/21 10:45:04;;;;;;;1999.90;999.90;;;26.60;99.90;;;;;;5077480;28;20082;-80
2023/09/21 10:47:33;;;;;;;1999.90;999.90;;;26.40;99.90;;;;;;5078455;28;20044;-80
2023/09/21 10:50:06;;;;;;;1999.90;999.90;;;26.30;99.90;;;;;;5080230;28;20489;-80
2023/09/21 10:52:32;;;;;;;1999.90;999.90;;;26.30;99.90;;;;;;5078812;28;20044;-80
2023/09/21 10:54:59;;;;;;;1999.90;999.90;;;26.40;99.90;;;;;;5078629;28;20032;-80
2023/09/21 10:57:29;;;;;;;1999.90;999.90;;;26.80;99.90;;;;;;5077699;28;20841;-80
2023/09/21 10:59:55;;;;;;;1999.90;999.90;;;27.10;99.90;;;;;;5078042;28;20044;-81
2023/09/21 11:02:22;;;;;;;1999.90;999.90;;;27.40;99.20;;;;;;5078140;28;20117;-80
2023/09/21 11:04:49;;;;;;;1999.90;999.90;;;27.60;97.80;;;;;;5077399;28;20112;-80
2023/09/21 11:07:17;;;;;;;1999.90;999.90;;;27.70;97.90;;;;;;5079747;28;20040;-81
2023/09/21 11:09:46;;;;;;;1999.90;999.90;;;27.30;98.80;;;;;;5078685;28;20037;-81
2023/09/21 11:12:18;;;;;;;1999.90;999.90;;;27.10;99.90;;;;;;5079953;28;20124;-82
2023/09/21 11:14:48;;;;;;;1999.90;999.90;;;27.00;99.90;;;;;;5080263;28;20021;-82
2023/09/21 11:17:18;;;;;;;1999.90;999.90;;;27.00;99.90;;;;;;5059703;28;20044;-81
2023/09/21 11:19:45;;;;;;;1999.90;999.90;;;27.10;99.90;;;;;;5060579;28;20034;-80
2023/09/21 11:22:12;;;;;;;1999.90;999.90;;;27.10;99.50;;;;;;5059326;28;20765;-80
2023/09/21 11:24:38;;;;;;;1999.90;999.90;;;27.00;99.60;;;;;;5074057;28;20059;-80
2023/09/21 11:27:11;;;;;;;1999.90;999.90;;;26.90;99.30;;;;;;5077279;28;20082;-80
2023/09/21 11:29:39;;;;;;;1999.90;999.90;;;26.70;99.90;;;;;;5077328;28;20037;-80
2023/09/21 11:32:11;;;;;;;1999.90;999.90;;;26.60;99.20;;;;;;5078094;28;20057;-79
2023/09/21 11:34:42;;;;;;;1999.90;999.90;;;26.80;98.90;;;;;;5077500;28;20029;-80
2023/09/21 11:37:12;;;;;;;1999.90;999.90;;;26.40;98.40;;;;;;5077629;28;20037;-80
2023/09/21 11:39:39;;;;;;;1999.90;999.90;;;26.40;99.20;;;;;;5079167;28;20911;-80
2023/09/21 11:42:10;;;;;;;1999.90;999.90;;;26.50;99.90;;;;;;5078518;28;20112;-80
2023/09/21 11:44:37;;;;;;;1999.90;999.90;;;26.50;99.90;;;;;;5077872;28;20127;-80
2023/09/21 11:47:07;;;;;;;1999.90;999.90;;;26.60;99.90;;;;;;5077154;28;20037;-80
2023/09/21 11:49:39;;;;;;;1999.90;999.90;;;26.70;99.40;;;;;;5080061;28;20037;-80
2023/09/21 11:52:05;;;;;;;1999.90;999.90;;;26.80;99.80;;;;;;5078833;28;20033;-80
2023/09/21 11:54:35;;;;;;;1999.90;999.90;;;27.00;98.70;;;;;;5078299;28;20068;-80
2023/09/21 11:57:04;;;;;;;1999.90;999.90;;;27.20;98.90;;;;;;5078083;28;20039;-80
2023/09/21 11:59:34;;;;;;;1999.90;999.90;;;27.10;96.60;;;;;;5079077;28;20084;-79